sensor_id;sensor_type;location;lat;lon;timestamp;P1;durP1;ratioP1;P2;durP2;ratioP2
20649;SDS011;10484;48.736;9.332;2022-10-16T00:01:24;5.40;;;2.27;;
20649;SDS011;10484;48.736;9.332;2022-10-16T00:03:51;4.80;;;2.03;;
20649;SDS011;10484;48.736;9.332;2022-10-16T00:06:18;3.97;;;2.03;;
20649;SDS011;10484;48.736;9.332;2022-10-16T00:08:46;9.13;;;2.60;;
20649;SDS011;10484;48.736;9.332;2022-10-16T00:11:14;5.03;;;2.63;;
20649;SDS011;10484;48.736;9.332;2022-10-16T00:13:45;3.73;;;2.47;;
20649;SDS011;10484;48.736;9.332;2022-10-16T00:16:12;2.90;;;2.20;;
20649;SDS011;10484;48.736;9.332;2022-10-16T00:18:38;3.40;;;2.40;;
20649;SDS011;10484;48.736;9.332;2022-10-16T00:21:09;4.13;;;1.90;;
20649;SDS011;10484;48.736;9.332;2022-10-16T00:23:37;2.50;;;1.80;;
20649;SDS011;10484;48.736;9.332;2022-10-16T00:26:04;2.87;;;2.20;;
20649;SDS011;10484;48.736;9.332;2022-10-16T00:28:32;2.57;;;2.03;;
20649;SDS011;10484;48.736;9.332;2022-10-16T00:30:58;2.80;;;1.77;;
20649;SDS011;10484;48.736;9.332;2022-10-16T00:33:24;4.63;;;2.40;;
20649;SDS011;10484;48.736;9.332;2022-10-16T00:35:49;6.63;;;2.40;;
20649;SDS011;10484;48.736;9.332;2022-10-16T00:38:15;4.37;;;2.13;;
20649;SDS011;10484;48.736;9.332;2022-10-16T00:40:41;3.23;;;2.00;;
20649;SDS011;10484;48.736;9.332;2022-10-16T00:43:14;2.47;;;1.73;;
20649;SDS011;10484;48.736;9.332;2022-10-16T00:45:59;2.20;;;1.73;;
20649;SDS011;10484;48.736;9.332;2022-10-16T00:48:26;2.87;;;2.23;;
20649;SDS011;10484;48.736;9.332;2022-10-16T00:50:52;2.07;;;1.87;;
20649;SDS011;10484;48.736;9.332;2022-10-16T00:53:18;1.90;;;1.47;;
20649;SDS011;10484;48.736;9.332;2022-10-16T00:55:44;3.70;;;1.80;;
20649;SDS011;10484;48.736;9.332;2022-10-16T00:58:11;2.57;;;2.37;;
20649;SDS011;10484;48.736;9.332;2022-10-16T01:00:36;2.77;;;1.70;;
20649;SDS011;10484;48.736;9.332;2022-10-16T01:03:02;2.20;;;1.60;;
20649;SDS011;10484;48.736;9.332;2022-10-16T01:05:39;2.33;;;1.60;;
20649;SDS011;10484;48.736;9.332;2022-10-16T01:08:21;1.93;;;1.73;;
20649;SDS011;10484;48.736;9.332;2022-10-16T01:10:57;1.87;;;1.77;;
20649;SDS011;10484;48.736;9.332;2022-10-16T01:13:33;1.57;;;1.30;;
20649;SDS011;10484;48.736;9.332;2022-10-16T01:16:06;1.80;;;1.23;;
20649;SDS011;10484;48.736;9.332;2022-10-16T01:18:49;1.53;;;1.40;;
20649;SDS011;10484;48.736;9.332;2022-10-16T01:21:32;1.83;;;1.67;;
20649;SDS011;10484;48.736;9.332;2022-10-16T01:29:53;1.67;;;1.57;;
20649;SDS011;10484;48.736;9.332;2022-10-16T01:32:40;3.90;;;1.60;;
20649;SDS011;10484;48.736;9.332;2022-10-16T01:35:25;2.03;;;1.67;;
20649;SDS011;10484;48.736;9.332;2022-10-16T01:38:02;2.53;;;1.50;;
20649;SDS011;10484;48.736;9.332;2022-10-16T01:40:32;8.23;;;1.77;;
20649;SDS011;10484;48.736;9.332;2022-10-16T01:43:05;1.90;;;1.40;;
20649;SDS011;10484;48.736;9.332;2022-10-16T01:45:44;1.30;;;1.20;;
20649;SDS011;10484;48.736;9.332;2022-10-16T01:48:11;1.97;;;1.30;;
20649;SDS011;10484;48.736;9.332;2022-10-16T01:50:39;4.53;;;1.30;;
20649;SDS011;10484;48.736;9.332;2022-10-16T01:53:08;3.63;;;1.53;;
20649;SDS011;10484;48.736;9.332;2022-10-16T01:55:37;1.83;;;1.50;;
20649;SDS011;10484;48.736;9.332;2022-10-16T01:58:09;7.53;;;1.70;;
20649;SDS011;10484;48.736;9.332;2022-10-16T02:00:38;3.00;;;1.80;;
20649;SDS011;10484;48.736;9.332;2022-10-16T02:03:07;1.70;;;1.20;;
20649;SDS011;10484;48.736;9.332;2022-10-16T02:05:37;4.80;;;1.60;;
20649;SDS011;10484;48.736;9.332;2022-10-16T02:08:07;1.63;;;1.37;;
20649;SDS011;10484;48.736;9.332;2022-10-16T02:10:34;3.00;;;1.07;;
20649;SDS011;10484;48.736;9.332;2022-10-16T02:15:46;3.33;;;1.57;;
20649;SDS011;10484;48.736;9.332;2022-10-16T02:18:12;2.40;;;1.20;;
20649;SDS011;10484;48.736;9.332;2022-10-16T02:20:48;5.63;;;1.40;;
20649;SDS011;10484;48.736;9.332;2022-10-16T02:23:32;1.83;;;1.60;;
20649;SDS011;10484;48.736;9.332;2022-10-16T02:26:00;2.30;;;1.17;;
20649;SDS011;10484;48.736;9.332;2022-10-16T02:28:33;1.30;;;1.20;;
20649;SDS011;10484;48.736;9.332;2022-10-16T02:31:08;2.17;;;1.33;;
20649;SDS011;10484;48.736;9.332;2022-10-16T02:33:38;1.30;;;1.20;;
20649;SDS011;10484;48.736;9.332;2022-10-16T02:36:06;2.10;;;1.33;;
20649;SDS011;10484;48.736;9.332;2022-10-16T02:38:32;2.20;;;1.53;;
20649;SDS011;10484;48.736;9.332;2022-10-16T02:40:59;2.00;;;1.83;;
20649;SDS011;10484;48.736;9.332;2022-10-16T02:43:25;1.77;;;1.30;;
20649;SDS011;10484;48.736;9.332;2022-10-16T02:45:51;2.30;;;1.43;;
20649;SDS011;10484;48.736;9.332;2022-10-16T02:48:17;1.60;;;1.50;;
20649;SDS011;10484;48.736;9.332;2022-10-16T02:50:42;1.73;;;1.40;;
20649;SDS011;10484;48.736;9.332;2022-10-16T02:53:08;4.70;;;1.40;;
20649;SDS011;10484;48.736;9.332;2022-10-16T02:55:33;1.80;;;1.37;;
20649;SDS011;10484;48.736;9.332;2022-10-16T02:57:59;2.57;;;1.90;;
20649;SDS011;10484;48.736;9.332;2022-10-16T03:00:25;3.17;;;1.50;;
20649;SDS011;10484;48.736;9.332;2022-10-16T03:02:50;1.77;;;1.23;;
20649;SDS011;10484;48.736;9.332;2022-10-16T03:05:16;1.60;;;1.33;;
20649;SDS011;10484;48.736;9.332;2022-10-16T03:07:42;2.83;;;1.77;;
20649;SDS011;10484;48.736;9.332;2022-10-16T03:10:08;3.90;;;1.57;;
20649;SDS011;10484;48.736;9.332;2022-10-16T03:12:33;1.90;;;1.30;;
20649;SDS011;10484;48.736;9.332;2022-10-16T03:14:59;1.83;;;1.20;;
20649;SDS011;10484;48.736;9.332;2022-10-16T03:17:25;3.37;;;1.40;;
20649;SDS011;10484;48.736;9.332;2022-10-16T03:19:51;2.40;;;1.33;;
20649;SDS011;10484;48.736;9.332;2022-10-16T03:22:16;2.70;;;1.50;;
20649;SDS011;10484;48.736;9.332;2022-10-16T03:24:42;2.80;;;1.30;;
20649;SDS011;10484;48.736;9.332;2022-10-16T03:27:08;1.13;;;0.90;;
20649;SDS011;10484;48.736;9.332;2022-10-16T03:29:34;3.23;;;1.53;;
20649;SDS011;10484;48.736;9.332;2022-10-16T03:32:00;1.13;;;1.03;;
20649;SDS011;10484;48.736;9.332;2022-10-16T03:34:25;2.20;;;1.00;;
20649;SDS011;10484;48.736;9.332;2022-10-16T03:36:51;2.90;;;1.10;;
20649;SDS011;10484;48.736;9.332;2022-10-16T03:39:17;2.90;;;1.37;;
20649;SDS011;10484;48.736;9.332;2022-10-16T03:41:43;1.53;;;0.73;;
20649;SDS011;10484;48.736;9.332;2022-10-16T03:44:09;2.53;;;1.40;;
20649;SDS011;10484;48.736;9.332;2022-10-16T03:46:34;1.40;;;1.30;;
20649;SDS011;10484;48.736;9.332;2022-10-16T03:49:00;3.83;;;1.30;;
20649;SDS011;10484;48.736;9.332;2022-10-16T03:51:25;4.40;;;1.70;;
20649;SDS011;10484;48.736;9.332;2022-10-16T03:53:51;0.83;;;0.83;;
20649;SDS011;10484;48.736;9.332;2022-10-16T03:56:17;1.73;;;1.50;;
20649;SDS011;10484;48.736;9.332;2022-10-16T03:58:42;1.77;;;1.47;;
20649;SDS011;10484;48.736;9.332;2022-10-16T04:01:08;1.60;;;1.20;;
20649;SDS011;10484;48.736;9.332;2022-10-16T04:03:33;2.30;;;0.93;;
20649;SDS011;10484;48.736;9.332;2022-10-16T04:05:59;2.60;;;1.43;;
20649;SDS011;10484;48.736;9.332;2022-10-16T04:08:25;1.20;;;0.90;;
20649;SDS011;10484;48.736;9.332;2022-10-16T04:10:50;1.47;;;1.10;;
20649;SDS011;10484;48.736;9.332;2022-10-16T04:13:16;2.40;;;1.10;;
20649;SDS011;10484;48.736;9.332;2022-10-16T04:15:42;1.20;;;1.00;;
20649;SDS011;10484;48.736;9.332;2022-10-16T04:18:09;2.40;;;1.30;;
20649;SDS011;10484;48.736;9.332;2022-10-16T04:20:34;4.83;;;1.47;;
20649;SDS011;10484;48.736;9.332;2022-10-16T04:23:00;2.93;;;1.50;;
20649;SDS011;10484;48.736;9.332;2022-10-16T04:25:26;1.90;;;1.40;;
20649;SDS011;10484;48.736;9.332;2022-10-16T04:27:54;1.10;;;1.00;;
20649;SDS011;10484;48.736;9.332;2022-10-16T04:30:20;7.03;;;2.37;;
20649;SDS011;10484;48.736;9.332;2022-10-16T04:32:47;2.13;;;1.80;;
20649;SDS011;10484;48.736;9.332;2022-10-16T04:35:14;6.33;;;1.80;;
20649;SDS011;10484;48.736;9.332;2022-10-16T04:37:40;4.47;;;2.90;;
20649;SDS011;10484;48.736;9.332;2022-10-16T04:40:06;1.87;;;1.00;;
20649;SDS011;10484;48.736;9.332;2022-10-16T04:42:32;1.67;;;1.57;;
20649;SDS011;10484;48.736;9.332;2022-10-16T04:44:58;1.70;;;1.30;;
20649;SDS011;10484;48.736;9.332;2022-10-16T04:47:23;1.77;;;1.43;;
20649;SDS011;10484;48.736;9.332;2022-10-16T04:49:49;1.20;;;1.10;;
20649;SDS011;10484;48.736;9.332;2022-10-16T04:52:14;4.50;;;1.43;;
20649;SDS011;10484;48.736;9.332;2022-10-16T04:54:40;4.00;;;1.33;;
20649;SDS011;10484;48.736;9.332;2022-10-16T04:57:06;2.80;;;1.33;;
20649;SDS011;10484;48.736;9.332;2022-10-16T04:59:31;2.30;;;1.50;;
20649;SDS011;10484;48.736;9.332;2022-10-16T05:01:57;2.67;;;0.97;;
20649;SDS011;10484;48.736;9.332;2022-10-16T05:04:23;2.20;;;1.10;;
20649;SDS011;10484;48.736;9.332;2022-10-16T05:06:48;4.90;;;1.07;;
20649;SDS011;10484;48.736;9.332;2022-10-16T05:09:14;4.60;;;1.07;;
20649;SDS011;10484;48.736;9.332;2022-10-16T05:11:40;1.30;;;1.20;;
20649;SDS011;10484;48.736;9.332;2022-10-16T05:14:05;1.40;;;1.30;;
20649;SDS011;10484;48.736;9.332;2022-10-16T05:16:31;2.13;;;1.23;;
20649;SDS011;10484;48.736;9.332;2022-10-16T05:18:56;1.87;;;1.13;;
20649;SDS011;10484;48.736;9.332;2022-10-16T05:21:22;1.13;;;1.00;;
20649;SDS011;10484;48.736;9.332;2022-10-16T05:23:48;3.03;;;1.27;;
20649;SDS011;10484;48.736;9.332;2022-10-16T05:26:13;1.57;;;1.10;;
20649;SDS011;10484;48.736;9.332;2022-10-16T05:28:39;3.70;;;1.30;;
20649;SDS011;10484;48.736;9.332;2022-10-16T05:31:05;1.67;;;1.07;;
20649;SDS011;10484;48.736;9.332;2022-10-16T05:33:32;1.37;;;1.27;;
20649;SDS011;10484;48.736;9.332;2022-10-16T05:36:02;2.43;;;1.33;;
20649;SDS011;10484;48.736;9.332;2022-10-16T05:38:28;6.17;;;1.10;;
20649;SDS011;10484;48.736;9.332;2022-10-16T05:40:54;1.30;;;1.00;;
20649;SDS011;10484;48.736;9.332;2022-10-16T05:43:20;1.43;;;1.27;;
20649;SDS011;10484;48.736;9.332;2022-10-16T05:45:53;2.00;;;1.00;;
20649;SDS011;10484;48.736;9.332;2022-10-16T05:48:19;3.90;;;1.43;;
20649;SDS011;10484;48.736;9.332;2022-10-16T05:50:45;1.97;;;1.33;;
20649;SDS011;10484;48.736;9.332;2022-10-16T05:53:10;0.97;;;0.87;;
20649;SDS011;10484;48.736;9.332;2022-10-16T05:55:36;1.37;;;1.07;;
20649;SDS011;10484;48.736;9.332;2022-10-16T05:58:02;2.20;;;1.17;;
20649;SDS011;10484;48.736;9.332;2022-10-16T06:00:27;1.10;;;1.00;;
20649;SDS011;10484;48.736;9.332;2022-10-16T06:02:53;1.63;;;1.10;;
20649;SDS011;10484;48.736;9.332;2022-10-16T06:05:19;2.23;;;1.20;;
20649;SDS011;10484;48.736;9.332;2022-10-16T06:07:44;1.47;;;1.10;;
20649;SDS011;10484;48.736;9.332;2022-10-16T06:10:10;2.40;;;1.30;;
20649;SDS011;10484;48.736;9.332;2022-10-16T06:12:35;1.20;;;1.10;;
20649;SDS011;10484;48.736;9.332;2022-10-16T06:15:01;1.37;;;1.10;;
20649;SDS011;10484;48.736;9.332;2022-10-16T06:17:27;5.23;;;1.70;;
20649;SDS011;10484;48.736;9.332;2022-10-16T06:19:53;3.67;;;1.10;;
20649;SDS011;10484;48.736;9.332;2022-10-16T06:22:18;1.60;;;1.50;;
20649;SDS011;10484;48.736;9.332;2022-10-16T06:24:44;2.63;;;1.40;;
20649;SDS011;10484;48.736;9.332;2022-10-16T06:27:11;1.30;;;1.00;;
20649;SDS011;10484;48.736;9.332;2022-10-16T06:29:36;1.50;;;1.40;;
20649;SDS011;10484;48.736;9.332;2022-10-16T06:32:02;3.03;;;1.50;;
20649;SDS011;10484;48.736;9.332;2022-10-16T06:34:28;2.87;;;1.60;;
20649;SDS011;10484;48.736;9.332;2022-10-16T06:36:53;2.13;;;1.37;;
20649;SDS011;10484;48.736;9.332;2022-10-16T06:39:20;1.50;;;1.37;;
20649;SDS011;10484;48.736;9.332;2022-10-16T06:41:45;1.60;;;1.17;;
20649;SDS011;10484;48.736;9.332;2022-10-16T06:44:11;1.50;;;1.40;;
20649;SDS011;10484;48.736;9.332;2022-10-16T06:46:37;3.63;;;1.43;;
20649;SDS011;10484;48.736;9.332;2022-10-16T06:49:02;3.60;;;1.33;;
20649;SDS011;10484;48.736;9.332;2022-10-16T06:51:28;4.20;;;2.00;;
20649;SDS011;10484;48.736;9.332;2022-10-16T06:53:55;2.00;;;1.70;;
20649;SDS011;10484;48.736;9.332;2022-10-16T06:56:22;5.07;;;2.30;;
20649;SDS011;10484;48.736;9.332;2022-10-16T06:58:50;3.10;;;1.97;;
20649;SDS011;10484;48.736;9.332;2022-10-16T07:01:17;2.10;;;1.60;;
20649;SDS011;10484;48.736;9.332;2022-10-16T07:03:44;3.80;;;2.10;;
20649;SDS011;10484;48.736;9.332;2022-10-16T07:06:11;3.20;;;2.07;;
20649;SDS011;10484;48.736;9.332;2022-10-16T07:08:40;3.50;;;2.37;;
20649;SDS011;10484;48.736;9.332;2022-10-16T07:11:08;2.83;;;1.90;;
20649;SDS011;10484;48.736;9.332;2022-10-16T07:13:36;2.33;;;2.10;;
20649;SDS011;10484;48.736;9.332;2022-10-16T07:16:06;4.37;;;2.00;;
20649;SDS011;10484;48.736;9.332;2022-10-16T07:18:33;2.47;;;2.17;;
20649;SDS011;10484;48.736;9.332;2022-10-16T07:21:20;1.87;;;1.77;;
20649;SDS011;10484;48.736;9.332;2022-10-16T07:23:45;6.00;;;2.70;;
20649;SDS011;10484;48.736;9.332;2022-10-16T07:26:22;2.57;;;1.87;;
20649;SDS011;10484;48.736;9.332;2022-10-16T07:28:48;3.07;;;2.20;;
20649;SDS011;10484;48.736;9.332;2022-10-16T07:31:17;3.60;;;2.50;;
20649;SDS011;10484;48.736;9.332;2022-10-16T07:33:44;3.43;;;1.90;;
20649;SDS011;10484;48.736;9.332;2022-10-16T07:36:11;2.47;;;2.27;;
20649;SDS011;10484;48.736;9.332;2022-10-16T07:38:37;3.20;;;2.07;;
20649;SDS011;10484;48.736;9.332;2022-10-16T07:41:04;3.43;;;1.57;;
20649;SDS011;10484;48.736;9.332;2022-10-16T07:43:31;2.37;;;2.17;;
20649;SDS011;10484;48.736;9.332;2022-10-16T07:45:57;3.60;;;2.40;;
20649;SDS011;10484;48.736;9.332;2022-10-16T07:48:24;2.67;;;2.27;;
20649;SDS011;10484;48.736;9.332;2022-10-16T07:50:52;2.37;;;2.17;;
20649;SDS011;10484;48.736;9.332;2022-10-16T07:53:21;3.00;;;2.70;;
20649;SDS011;10484;48.736;9.332;2022-10-16T07:55:47;2.73;;;2.23;;
20649;SDS011;10484;48.736;9.332;2022-10-16T07:58:12;2.60;;;2.27;;
20649;SDS011;10484;48.736;9.332;2022-10-16T08:00:38;4.90;;;2.57;;
20649;SDS011;10484;48.736;9.332;2022-10-16T08:03:04;5.30;;;2.40;;
20649;SDS011;10484;48.736;9.332;2022-10-16T08:05:30;4.93;;;2.07;;
20649;SDS011;10484;48.736;9.332;2022-10-16T08:07:57;2.70;;;2.33;;
20649;SDS011;10484;48.736;9.332;2022-10-16T08:10:24;4.03;;;2.47;;
20649;SDS011;10484;48.736;9.332;2022-10-16T08:12:51;3.57;;;2.67;;
20649;SDS011;10484;48.736;9.332;2022-10-16T08:15:17;2.73;;;2.20;;
20649;SDS011;10484;48.736;9.332;2022-10-16T08:17:43;3.13;;;2.13;;
20649;SDS011;10484;48.736;9.332;2022-10-16T08:20:09;3.23;;;2.27;;
20649;SDS011;10484;48.736;9.332;2022-10-16T08:22:35;3.53;;;2.53;;
20649;SDS011;10484;48.736;9.332;2022-10-16T08:25:01;4.63;;;2.70;;
20649;SDS011;10484;48.736;9.332;2022-10-16T08:27:33;4.37;;;2.27;;
20649;SDS011;10484;48.736;9.332;2022-10-16T08:29:59;5.03;;;3.00;;
20649;SDS011;10484;48.736;9.332;2022-10-16T08:32:24;3.00;;;2.17;;
20649;SDS011;10484;48.736;9.332;2022-10-16T08:34:50;2.57;;;2.30;;
20649;SDS011;10484;48.736;9.332;2022-10-16T08:37:16;2.70;;;2.50;;
20649;SDS011;10484;48.736;9.332;2022-10-16T08:39:41;3.40;;;2.80;;
20649;SDS011;10484;48.736;9.332;2022-10-16T08:45:08;4.00;;;1.97;;
20649;SDS011;10484;48.736;9.332;2022-10-16T08:50:36;3.50;;;3.00;;
20649;SDS011;10484;48.736;9.332;2022-10-16T08:53:04;2.80;;;2.17;;
20649;SDS011;10484;48.736;9.332;2022-10-16T08:55:33;3.07;;;2.40;;
20649;SDS011;10484;48.736;9.332;2022-10-16T08:58:13;5.70;;;2.20;;
20649;SDS011;10484;48.736;9.332;2022-10-16T09:00:44;3.80;;;2.50;;
20649;SDS011;10484;48.736;9.332;2022-10-16T09:11:47;3.67;;;2.00;;
20649;SDS011;10484;48.736;9.332;2022-10-16T09:16:53;2.37;;;2.10;;
20649;SDS011;10484;48.736;9.332;2022-10-16T09:19:33;2.57;;;2.37;;
20649;SDS011;10484;48.736;9.332;2022-10-16T09:22:11;2.40;;;1.90;;
20649;SDS011;10484;48.736;9.332;2022-10-16T09:24:40;1.70;;;1.60;;
20649;SDS011;10484;48.736;9.332;2022-10-16T09:27:08;1.93;;;1.57;;
20649;SDS011;10484;48.736;9.332;2022-10-16T09:29:36;4.97;;;1.90;;
20649;SDS011;10484;48.736;9.332;2022-10-16T09:32:35;3.60;;;2.10;;
20649;SDS011;10484;48.736;9.332;2022-10-16T09:34:54;8.10;;;2.23;;
20649;SDS011;10484;48.736;9.332;2022-10-16T09:37:22;3.30;;;2.10;;
20649;SDS011;10484;48.736;9.332;2022-10-16T09:42:20;1.73;;;1.37;;
20649;SDS011;10484;48.736;9.332;2022-10-16T09:44:49;1.30;;;1.20;;
20649;SDS011;10484;48.736;9.332;2022-10-16T09:47:21;6.67;;;1.80;;
20649;SDS011;10484;48.736;9.332;2022-10-16T09:49:58;1.47;;;1.37;;
20649;SDS011;10484;48.736;9.332;2022-10-16T09:52:31;1.50;;;1.40;;
20649;SDS011;10484;48.736;9.332;2022-10-16T09:54:58;2.20;;;1.20;;
20649;SDS011;10484;48.736;9.332;2022-10-16T09:57:26;3.03;;;1.27;;
20649;SDS011;10484;48.736;9.332;2022-10-16T09:59:53;1.40;;;1.30;;
20649;SDS011;10484;48.736;9.332;2022-10-16T10:05:23;1.50;;;1.20;;
20649;SDS011;10484;48.736;9.332;2022-10-16T10:07:57;2.23;;;1.30;;
20649;SDS011;10484;48.736;9.332;2022-10-16T10:10:28;2.47;;;1.40;;
20649;SDS011;10484;48.736;9.332;2022-10-16T10:12:55;4.20;;;1.23;;
20649;SDS011;10484;48.736;9.332;2022-10-16T10:15:22;1.50;;;1.40;;
20649;SDS011;10484;48.736;9.332;2022-10-16T10:17:50;1.53;;;1.00;;
20649;SDS011;10484;48.736;9.332;2022-10-16T10:20:25;2.27;;;1.50;;
20649;SDS011;10484;48.736;9.332;2022-10-16T10:22:54;1.77;;;1.20;;
20649;SDS011;10484;48.736;9.332;2022-10-16T10:25:41;1.27;;;1.17;;
20649;SDS011;10484;48.736;9.332;2022-10-16T10:30:55;2.37;;;1.03;;
20649;SDS011;10484;48.736;9.332;2022-10-16T10:44:16;1.20;;;1.10;;
20649;SDS011;10484;48.736;9.332;2022-10-16T10:46:56;5.33;;;1.10;;
20649;SDS011;10484;48.736;9.332;2022-10-16T10:57:57;2.20;;;1.10;;
20649;SDS011;10484;48.736;9.332;2022-10-16T11:06:29;1.20;;;0.93;;
20649;SDS011;10484;48.736;9.332;2022-10-16T11:11:38;3.07;;;1.33;;
20649;SDS011;10484;48.736;9.332;2022-10-16T11:14:20;1.20;;;1.10;;
20649;SDS011;10484;48.736;9.332;2022-10-16T11:16:57;1.10;;;1.00;;
20649;SDS011;10484;48.736;9.332;2022-10-16T11:30:57;1.23;;;0.90;;
20649;SDS011;10484;48.736;9.332;2022-10-16T11:33:34;0.93;;;0.73;;
20649;SDS011;10484;48.736;9.332;2022-10-16T11:41:49;3.33;;;0.80;;
20649;SDS011;10484;48.736;9.332;2022-10-16T11:44:33;0.80;;;0.77;;
20649;SDS011;10484;48.736;9.332;2022-10-16T11:56:11;1.20;;;1.03;;
20649;SDS011;10484;48.736;9.332;2022-10-16T11:59:28;1.07;;;0.70;;
20649;SDS011;10484;48.736;9.332;2022-10-16T12:02:12;1.13;;;0.77;;
20649;SDS011;10484;48.736;9.332;2022-10-16T12:07:47;1.30;;;1.10;;
20649;SDS011;10484;48.736;9.332;2022-10-16T12:10:33;0.80;;;0.80;;
20649;SDS011;10484;48.736;9.332;2022-10-16T12:13:01;2.00;;;0.90;;
20649;SDS011;10484;48.736;9.332;2022-10-16T12:15:29;2.10;;;0.73;;
20649;SDS011;10484;48.736;9.332;2022-10-16T12:17:56;1.37;;;1.07;;
20649;SDS011;10484;48.736;9.332;2022-10-16T12:20:23;1.10;;;0.60;;
20649;SDS011;10484;48.736;9.332;2022-10-16T12:25:38;0.77;;;0.77;;
20649;SDS011;10484;48.736;9.332;2022-10-16T12:30:40;1.10;;;1.00;;
20649;SDS011;10484;48.736;9.332;2022-10-16T12:33:21;1.47;;;0.87;;
20649;SDS011;10484;48.736;9.332;2022-10-16T12:35:47;1.53;;;0.80;;
20649;SDS011;10484;48.736;9.332;2022-10-16T12:38:20;2.27;;;0.97;;
20649;SDS011;10484;48.736;9.332;2022-10-16T12:40:59;1.13;;;1.03;;
20649;SDS011;10484;48.736;9.332;2022-10-16T12:43:42;0.97;;;0.67;;
20649;SDS011;10484;48.736;9.332;2022-10-16T12:48:40;1.83;;;1.00;;
20649;SDS011;10484;48.736;9.332;2022-10-16T12:51:22;0.93;;;0.60;;
20649;SDS011;10484;48.736;9.332;2022-10-16T12:54:14;1.80;;;0.80;;
20649;SDS011;10484;48.736;9.332;2022-10-16T12:57:03;0.70;;;0.60;;
20649;SDS011;10484;48.736;9.332;2022-10-16T12:59:45;2.20;;;0.80;;
20649;SDS011;10484;48.736;9.332;2022-10-16T13:05:22;0.80;;;0.80;;
20649;SDS011;10484;48.736;9.332;2022-10-16T13:07:59;1.27;;;1.00;;
20649;SDS011;10484;48.736;9.332;2022-10-16T13:10:56;1.07;;;0.90;;
20649;SDS011;10484;48.736;9.332;2022-10-16T13:16:19;1.03;;;0.93;;
20649;SDS011;10484;48.736;9.332;2022-10-16T13:29:22;2.43;;;1.00;;
20649;SDS011;10484;48.736;9.332;2022-10-16T13:31:48;0.90;;;0.70;;
20649;SDS011;10484;48.736;9.332;2022-10-16T13:34:18;0.90;;;0.90;;
20649;SDS011;10484;48.736;9.332;2022-10-16T13:36:48;4.10;;;1.30;;
20649;SDS011;10484;48.736;9.332;2022-10-16T13:39:20;1.73;;;0.80;;
20649;SDS011;10484;48.736;9.332;2022-10-16T13:44:25;3.37;;;0.90;;
20649;SDS011;10484;48.736;9.332;2022-10-16T13:46:58;0.93;;;0.80;;
20649;SDS011;10484;48.736;9.332;2022-10-16T13:49:25;1.33;;;1.20;;
20649;SDS011;10484;48.736;9.332;2022-10-16T13:51:58;0.80;;;0.80;;
20649;SDS011;10484;48.736;9.332;2022-10-16T13:54:25;1.20;;;0.70;;
20649;SDS011;10484;48.736;9.332;2022-10-16T13:56:53;1.43;;;0.90;;
20649;SDS011;10484;48.736;9.332;2022-10-16T14:01:49;0.87;;;0.87;;
20649;SDS011;10484;48.736;9.332;2022-10-16T14:04:18;1.37;;;1.00;;
20649;SDS011;10484;48.736;9.332;2022-10-16T14:06:45;1.13;;;0.80;;
20649;SDS011;10484;48.736;9.332;2022-10-16T14:09:24;3.13;;;1.17;;
20649;SDS011;10484;48.736;9.332;2022-10-16T14:11:56;1.53;;;1.10;;
20649;SDS011;10484;48.736;9.332;2022-10-16T14:14:34;1.00;;;0.90;;
20649;SDS011;10484;48.736;9.332;2022-10-16T14:17:06;0.73;;;0.73;;
20649;SDS011;10484;48.736;9.332;2022-10-16T14:19:47;1.50;;;1.30;;
20649;SDS011;10484;48.736;9.332;2022-10-16T14:22:33;1.27;;;1.17;;
20649;SDS011;10484;48.736;9.332;2022-10-16T14:25:02;1.40;;;1.23;;
20649;SDS011;10484;48.736;9.332;2022-10-16T14:27:45;1.73;;;0.97;;
20649;SDS011;10484;48.736;9.332;2022-10-16T14:30:32;1.17;;;1.07;;
20649;SDS011;10484;48.736;9.332;2022-10-16T14:33:04;1.20;;;1.10;;
20649;SDS011;10484;48.736;9.332;2022-10-16T14:35:38;0.93;;;0.80;;
20649;SDS011;10484;48.736;9.332;2022-10-16T14:38:05;0.97;;;0.87;;
20649;SDS011;10484;48.736;9.332;2022-10-16T14:40:32;4.83;;;1.43;;
20649;SDS011;10484;48.736;9.332;2022-10-16T14:43:00;2.03;;;0.90;;
20649;SDS011;10484;48.736;9.332;2022-10-16T14:45:28;1.20;;;1.10;;
20649;SDS011;10484;48.736;9.332;2022-10-16T14:47:58;2.50;;;1.27;;
20649;SDS011;10484;48.736;9.332;2022-10-16T14:50:26;1.43;;;1.00;;
20649;SDS011;10484;48.736;9.332;2022-10-16T14:52:52;1.53;;;1.27;;
20649;SDS011;10484;48.736;9.332;2022-10-16T14:55:18;1.10;;;1.00;;
20649;SDS011;10484;48.736;9.332;2022-10-16T14:57:44;1.27;;;0.90;;
20649;SDS011;10484;48.736;9.332;2022-10-16T15:00:13;1.30;;;1.20;;
20649;SDS011;10484;48.736;9.332;2022-10-16T15:02:44;2.20;;;1.20;;
20649;SDS011;10484;48.736;9.332;2022-10-16T15:05:13;1.30;;;1.20;;
20649;SDS011;10484;48.736;9.332;2022-10-16T15:07:47;2.03;;;1.23;;
20649;SDS011;10484;48.736;9.332;2022-10-16T15:10:14;1.20;;;1.10;;
20649;SDS011;10484;48.736;9.332;2022-10-16T15:12:41;3.88;;;1.60;;
20649;SDS011;10484;48.736;9.332;2022-10-16T15:17:48;3.63;;;1.40;;
20649;SDS011;10484;48.736;9.332;2022-10-16T15:20:17;1.53;;;1.30;;
20649;SDS011;10484;48.736;9.332;2022-10-16T15:22:43;1.43;;;1.10;;
20649;SDS011;10484;48.736;9.332;2022-10-16T15:25:14;1.97;;;1.20;;
20649;SDS011;10484;48.736;9.332;2022-10-16T15:27:57;1.30;;;1.20;;
20649;SDS011;10484;48.736;9.332;2022-10-16T15:30:23;1.83;;;1.10;;
20649;SDS011;10484;48.736;9.332;2022-10-16T15:32:49;6.70;;;1.37;;
20649;SDS011;10484;48.736;9.332;2022-10-16T15:35:15;1.77;;;1.60;;
20649;SDS011;10484;48.736;9.332;2022-10-16T15:37:41;1.40;;;1.30;;
20649;SDS011;10484;48.736;9.332;2022-10-16T15:40:06;1.50;;;1.40;;
20649;SDS011;10484;48.736;9.332;2022-10-16T15:42:33;1.30;;;1.20;;
20649;SDS011;10484;48.736;9.332;2022-10-16T15:44:59;2.20;;;1.40;;
20649;SDS011;10484;48.736;9.332;2022-10-16T15:47:24;2.10;;;1.33;;
20649;SDS011;10484;48.736;9.332;2022-10-16T15:49:50;1.90;;;1.73;;
20649;SDS011;10484;48.736;9.332;2022-10-16T15:52:16;2.87;;;1.13;;
20649;SDS011;10484;48.736;9.332;2022-10-16T15:54:41;2.20;;;1.60;;
20649;SDS011;10484;48.736;9.332;2022-10-16T15:57:08;2.03;;;1.50;;
20649;SDS011;10484;48.736;9.332;2022-10-16T15:59:33;1.40;;;1.30;;
20649;SDS011;10484;48.736;9.332;2022-10-16T16:01:59;1.60;;;1.50;;
20649;SDS011;10484;48.736;9.332;2022-10-16T16:04:25;5.30;;;2.17;;
20649;SDS011;10484;48.736;9.332;2022-10-16T16:06:50;2.77;;;2.20;;
20649;SDS011;10484;48.736;9.332;2022-10-16T16:09:16;2.67;;;1.60;;
20649;SDS011;10484;48.736;9.332;2022-10-16T16:11:41;2.00;;;1.60;;
20649;SDS011;10484;48.736;9.332;2022-10-16T16:14:08;3.03;;;2.07;;
20649;SDS011;10484;48.736;9.332;2022-10-16T16:16:38;2.10;;;1.90;;
20649;SDS011;10484;48.736;9.332;2022-10-16T16:19:04;2.47;;;1.80;;
20649;SDS011;10484;48.736;9.332;2022-10-16T16:21:31;2.80;;;1.60;;
20649;SDS011;10484;48.736;9.332;2022-10-16T16:23:57;3.33;;;1.63;;
20649;SDS011;10484;48.736;9.332;2022-10-16T16:28:56;1.40;;;1.30;;
20649;SDS011;10484;48.736;9.332;2022-10-16T16:31:26;2.40;;;2.07;;
20649;SDS011;10484;48.736;9.332;2022-10-16T16:33:53;4.27;;;2.20;;
20649;SDS011;10484;48.736;9.332;2022-10-16T16:36:19;2.40;;;1.60;;
20649;SDS011;10484;48.736;9.332;2022-10-16T16:38:45;1.70;;;1.60;;
20649;SDS011;10484;48.736;9.332;2022-10-16T16:41:21;3.17;;;1.90;;
20649;SDS011;10484;48.736;9.332;2022-10-16T16:43:48;6.20;;;2.10;;
20649;SDS011;10484;48.736;9.332;2022-10-16T16:46:16;4.43;;;2.23;;
20649;SDS011;10484;48.736;9.332;2022-10-16T16:48:42;5.40;;;1.90;;
20649;SDS011;10484;48.736;9.332;2022-10-16T16:51:12;1.87;;;1.73;;
20649;SDS011;10484;48.736;9.332;2022-10-16T16:53:44;2.33;;;2.10;;
20649;SDS011;10484;48.736;9.332;2022-10-16T16:56:12;3.20;;;2.20;;
20649;SDS011;10484;48.736;9.332;2022-10-16T16:58:38;4.20;;;2.53;;
20649;SDS011;10484;48.736;9.332;2022-10-16T17:01:04;7.93;;;3.03;;
20649;SDS011;10484;48.736;9.332;2022-10-16T17:03:31;3.70;;;2.37;;
20649;SDS011;10484;48.736;9.332;2022-10-16T17:06:07;6.93;;;3.00;;